createdAt,value
2023-05-19T00:02:52.010Z,31.72
2023-05-19T00:22:51.940Z,31.72
2023-05-19T00:42:51.918Z,31.72
2023-05-19T01:02:51.908Z,31.72
2023-05-19T01:22:51.807Z,31.72
2023-05-19T01:42:51.495Z,31.72
2023-05-19T02:02:51.744Z,31.71
2023-05-19T02:22:51.703Z,31.71
2023-05-19T02:42:51.675Z,31.71
2023-05-19T03:22:51.618Z,31.71
2023-05-19T03:42:51.586Z,31.71
2023-05-19T04:02:51.574Z,31.71
2023-05-19T04:22:51.489Z,31.71
2023-05-19T04:42:51.484Z,31.71
2023-05-19T05:02:51.526Z,31.71
2023-05-19T05:22:51.416Z,31.71
2023-05-19T05:42:51.398Z,31.7
2023-05-19T06:02:51.457Z,31.7
2023-05-19T06:22:51.336Z,31.7
2023-05-19T06:42:51.285Z,31.7
2023-05-19T07:02:51.419Z,31.7
2023-05-19T07:22:50.970Z,31.7
2023-05-19T07:42:51.193Z,31.7
2023-05-19T08:02:51.235Z,31.69
2023-05-19T08:22:51.148Z,31.69
2023-05-19T08:42:50.880Z,31.69
2023-05-19T09:02:55.518Z,31.69
2023-05-19T09:22:51.024Z,31.69
2023-05-19T09:42:50.985Z,31.69
2023-05-19T10:02:51.009Z,31.69
2023-05-19T10:22:50.933Z,31.69
2023-05-19T10:42:50.883Z,31.69
2023-05-19T13:22:50.586Z,31.68
2023-05-19T13:42:50.634Z,31.67
2023-05-19T14:02:50.602Z,31.68
2023-05-19T14:22:50.467Z,31.67
2023-05-19T14:42:50.440Z,31.67
2023-05-19T15:02:50.462Z,31.67
2023-05-19T15:22:50.129Z,31.67
2023-05-19T15:42:50.369Z,31.67
2023-05-19T16:22:50.300Z,31.67
2023-05-19T16:42:50.239Z,31.66
2023-05-19T17:02:50.267Z,31.67
2023-05-19T17:22:50.172Z,31.66
2023-05-19T17:42:49.867Z,31.66
2023-05-19T18:02:50.125Z,31.66
2023-05-19T18:22:50.058Z,31.66
2023-05-19T18:42:50.030Z,31.66
2023-05-19T19:02:50.030Z,31.66
2023-05-19T19:22:49.950Z,31.66
2023-05-19T19:42:49.949Z,31.65
2023-05-19T20:03:03.380Z,31.65
2023-05-19T20:22:49.851Z,31.65
2023-05-19T20:42:49.809Z,31.65
2023-05-19T21:02:49.763Z,31.65
2023-05-19T21:22:49.734Z,31.64
2023-05-19T21:42:49.679Z,31.65
2023-05-19T22:02:49.752Z,31.64
2023-05-19T22:22:49.645Z,31.64
2023-05-19T22:42:49.602Z,31.64
2023-05-19T23:02:49.646Z,31.64
2023-05-19T23:22:49.531Z,31.64
2023-05-19T23:42:49.490Z,31.63
